sensor_id;sensor_type;location;lat;lon;timestamp;P1;durP1;ratioP1;P2;durP2;ratioP2
18168;SDS011;49877;50.398;30.324;2022-07-22T02:54:33;10.50;;;6.97;;
18168;SDS011;49877;50.398;30.324;2022-07-22T02:57:00;9.23;;;7.13;;
18168;SDS011;49877;50.398;30.324;2022-07-22T02:59:27;13.77;;;7.07;;
18168;SDS011;49877;50.398;30.324;2022-07-22T03:01:54;11.03;;;6.83;;
18168;SDS011;49877;50.398;30.324;2022-07-22T03:04:20;10.70;;;6.70;;
18168;SDS011;49877;50.398;30.324;2022-07-22T03:06:48;11.77;;;6.90;;
18168;SDS011;49877;50.398;30.324;2022-07-22T03:09:15;9.80;;;7.00;;
18168;SDS011;49877;50.398;30.324;2022-07-22T03:11:43;12.43;;;7.43;;
18168;SDS011;49877;50.398;30.324;2022-07-22T03:14:10;8.87;;;6.73;;
18168;SDS011;49877;50.398;30.324;2022-07-22T03:16:37;11.77;;;6.77;;
18168;SDS011;49877;50.398;30.324;2022-07-22T03:19:04;10.77;;;7.00;;
18168;SDS011;49877;50.398;30.324;2022-07-22T03:21:31;11.23;;;7.00;;
18168;SDS011;49877;50.398;30.324;2022-07-22T03:23:58;8.97;;;6.50;;
18168;SDS011;49877;50.398;30.324;2022-07-22T03:26:24;9.93;;;7.20;;
18168;SDS011;49877;50.398;30.324;2022-07-22T03:28:53;9.30;;;7.00;;
18168;SDS011;49877;50.398;30.324;2022-07-22T03:31:20;11.37;;;7.63;;
18168;SDS011;49877;50.398;30.324;2022-07-22T03:33:47;15.60;;;8.03;;
18168;SDS011;49877;50.398;30.324;2022-07-22T03:36:13;13.83;;;8.17;;
18168;SDS011;49877;50.398;30.324;2022-07-22T03:38:40;11.97;;;7.40;;
18168;SDS011;49877;50.398;30.324;2022-07-22T03:41:07;10.80;;;7.33;;
18168;SDS011;49877;50.398;30.324;2022-07-22T03:43:34;11.47;;;8.27;;
18168;SDS011;49877;50.398;30.324;2022-07-22T03:46:03;12.97;;;8.47;;
18168;SDS011;49877;50.398;30.324;2022-07-22T03:48:30;12.13;;;7.43;;
18168;SDS011;49877;50.398;30.324;2022-07-22T03:50:57;16.53;;;8.77;;
18168;SDS011;49877;50.398;30.324;2022-07-22T03:53:24;15.60;;;8.53;;
18168;SDS011;49877;50.398;30.324;2022-07-22T03:55:51;10.53;;;8.20;;
18168;SDS011;49877;50.398;30.324;2022-07-22T03:58:17;14.73;;;8.40;;
18168;SDS011;49877;50.398;30.324;2022-07-22T04:00:44;13.60;;;8.40;;
18168;SDS011;49877;50.398;30.324;2022-07-22T04:03:12;14.13;;;8.97;;
18168;SDS011;49877;50.398;30.324;2022-07-22T04:05:39;13.57;;;8.90;;
18168;SDS011;49877;50.398;30.324;2022-07-22T04:08:06;10.63;;;7.90;;
18168;SDS011;49877;50.398;30.324;2022-07-22T04:10:33;12.20;;;8.80;;
18168;SDS011;49877;50.398;30.324;2022-07-22T04:13:00;11.57;;;8.03;;
18168;SDS011;49877;50.398;30.324;2022-07-22T04:15:27;12.43;;;8.37;;
18168;SDS011;49877;50.398;30.324;2022-07-22T04:17:54;10.27;;;7.20;;
18168;SDS011;49877;50.398;30.324;2022-07-22T04:20:22;13.23;;;8.33;;
18168;SDS011;49877;50.398;30.324;2022-07-22T04:22:49;10.10;;;7.33;;
18168;SDS011;49877;50.398;30.324;2022-07-22T04:25:16;13.20;;;8.10;;
18168;SDS011;49877;50.398;30.324;2022-07-22T04:27:43;12.83;;;7.97;;
18168;SDS011;49877;50.398;30.324;2022-07-22T04:30:10;10.73;;;7.80;;
18168;SDS011;49877;50.398;30.324;2022-07-22T04:32:37;10.90;;;7.93;;
18168;SDS011;49877;50.398;30.324;2022-07-22T04:35:05;11.40;;;7.57;;
18168;SDS011;49877;50.398;30.324;2022-07-22T04:37:33;11.43;;;7.47;;
18168;SDS011;49877;50.398;30.324;2022-07-22T04:40:00;11.70;;;7.67;;
18168;SDS011;49877;50.398;30.324;2022-07-22T04:42:27;12.73;;;8.00;;
18168;SDS011;49877;50.398;30.324;2022-07-22T04:44:54;12.67;;;8.07;;
18168;SDS011;49877;50.398;30.324;2022-07-22T04:47:21;11.30;;;7.77;;
18168;SDS011;49877;50.398;30.324;2022-07-22T04:49:48;12.00;;;7.63;;
18168;SDS011;49877;50.398;30.324;2022-07-22T04:52:15;13.23;;;8.23;;
18168;SDS011;49877;50.398;30.324;2022-07-22T04:54:43;9.40;;;7.20;;
18168;SDS011;49877;50.398;30.324;2022-07-22T04:57:10;14.27;;;8.63;;
18168;SDS011;49877;50.398;30.324;2022-07-22T04:59:37;11.07;;;7.77;;
18168;SDS011;49877;50.398;30.324;2022-07-22T05:02:04;11.70;;;7.37;;
18168;SDS011;49877;50.398;30.324;2022-07-22T05:04:31;9.57;;;6.57;;
18168;SDS011;49877;50.398;30.324;2022-07-22T05:06:58;9.57;;;7.43;;
18168;SDS011;49877;50.398;30.324;2022-07-22T05:09:25;10.00;;;6.83;;
18168;SDS011;49877;50.398;30.324;2022-07-22T05:11:53;9.93;;;6.77;;
18168;SDS011;49877;50.398;30.324;2022-07-22T05:14:20;7.63;;;6.17;;
18168;SDS011;49877;50.398;30.324;2022-07-22T05:16:47;8.33;;;6.13;;
18168;SDS011;49877;50.398;30.324;2022-07-22T05:19:14;8.43;;;6.00;;
18168;SDS011;49877;50.398;30.324;2022-07-22T05:21:41;8.23;;;5.90;;
18168;SDS011;49877;50.398;30.324;2022-07-22T05:24:08;8.37;;;6.10;;
18168;SDS011;49877;50.398;30.324;2022-07-22T05:26:35;8.70;;;5.70;;
18168;SDS011;49877;50.398;30.324;2022-07-22T05:29:03;8.07;;;5.30;;
18168;SDS011;49877;50.398;30.324;2022-07-22T05:31:30;8.83;;;5.80;;
18168;SDS011;49877;50.398;30.324;2022-07-22T05:33:57;6.07;;;4.93;;
18168;SDS011;49877;50.398;30.324;2022-07-22T05:36:24;7.07;;;5.20;;
18168;SDS011;49877;50.398;30.324;2022-07-22T05:38:51;10.63;;;5.17;;
18168;SDS011;49877;50.398;30.324;2022-07-22T05:41:18;6.17;;;5.00;;
18168;SDS011;49877;50.398;30.324;2022-07-22T05:43:45;6.90;;;4.93;;
18168;SDS011;49877;50.398;30.324;2022-07-22T05:46:13;7.30;;;4.90;;
18168;SDS011;49877;50.398;30.324;2022-07-22T05:48:40;5.80;;;4.70;;
18168;SDS011;49877;50.398;30.324;2022-07-22T05:51:10;6.10;;;4.27;;
18168;SDS011;49877;50.398;30.324;2022-07-22T05:53:38;6.60;;;4.53;;
18168;SDS011;49877;50.398;30.324;2022-07-22T05:56:05;7.53;;;5.53;;
18168;SDS011;49877;50.398;30.324;2022-07-22T05:58:33;6.93;;;5.37;;
18168;SDS011;49877;50.398;30.324;2022-07-22T06:01:00;6.23;;;4.53;;
18168;SDS011;49877;50.398;30.324;2022-07-22T06:03:28;7.73;;;4.37;;
18168;SDS011;49877;50.398;30.324;2022-07-22T06:05:55;6.80;;;5.10;;
18168;SDS011;49877;50.398;30.324;2022-07-22T06:08:22;7.17;;;4.80;;
18168;SDS011;49877;50.398;30.324;2022-07-22T06:10:49;7.77;;;4.50;;
18168;SDS011;49877;50.398;30.324;2022-07-22T06:13:16;4.97;;;4.13;;
18168;SDS011;49877;50.398;30.324;2022-07-22T06:15:43;5.70;;;3.90;;
18168;SDS011;49877;50.398;30.324;2022-07-22T06:18:10;7.30;;;4.40;;
18168;SDS011;49877;50.398;30.324;2022-07-22T06:20:38;7.43;;;4.47;;
18168;SDS011;49877;50.398;30.324;2022-07-22T06:23:05;5.70;;;4.30;;
18168;SDS011;49877;50.398;30.324;2022-07-22T06:25:32;7.00;;;4.13;;
18168;SDS011;49877;50.398;30.324;2022-07-22T06:27:59;6.00;;;4.40;;
18168;SDS011;49877;50.398;30.324;2022-07-22T06:30:26;6.47;;;4.67;;
18168;SDS011;49877;50.398;30.324;2022-07-22T06:32:53;9.43;;;4.33;;
18168;SDS011;49877;50.398;30.324;2022-07-22T06:35:20;4.73;;;3.93;;
18168;SDS011;49877;50.398;30.324;2022-07-22T06:37:48;5.60;;;3.77;;
18168;SDS011;49877;50.398;30.324;2022-07-22T06:40:15;5.57;;;3.67;;
18168;SDS011;49877;50.398;30.324;2022-07-22T06:42:42;3.87;;;3.03;;
18168;SDS011;49877;50.398;30.324;2022-07-22T06:45:09;4.90;;;3.97;;
18168;SDS011;49877;50.398;30.324;2022-07-22T06:47:36;3.40;;;2.67;;
18168;SDS011;49877;50.398;30.324;2022-07-22T06:50:03;3.90;;;3.10;;
18168;SDS011;49877;50.398;30.324;2022-07-22T06:52:31;7.80;;;3.20;;
18168;SDS011;49877;50.398;30.324;2022-07-22T06:54:59;4.63;;;3.07;;
18168;SDS011;49877;50.398;30.324;2022-07-22T06:57:26;4.93;;;2.90;;
18168;SDS011;49877;50.398;30.324;2022-07-22T06:59:53;3.13;;;2.80;;
18168;SDS011;49877;50.398;30.324;2022-07-22T07:02:20;3.40;;;2.67;;
18168;SDS011;49877;50.398;30.324;2022-07-22T07:04:47;3.60;;;2.77;;
18168;SDS011;49877;50.398;30.324;2022-07-22T07:07:14;4.03;;;2.70;;
18168;SDS011;49877;50.398;30.324;2022-07-22T07:09:40;5.17;;;2.87;;
18168;SDS011;49877;50.398;30.324;2022-07-22T07:12:09;5.70;;;2.67;;
18168;SDS011;49877;50.398;30.324;2022-07-22T07:14:36;5.80;;;2.40;;
18168;SDS011;49877;50.398;30.324;2022-07-22T07:17:03;3.37;;;2.40;;
18168;SDS011;49877;50.398;30.324;2022-07-22T07:19:29;3.70;;;2.50;;
18168;SDS011;49877;50.398;30.324;2022-07-22T07:21:56;5.90;;;2.53;;
18168;SDS011;49877;50.398;30.324;2022-07-22T07:24:23;2.83;;;2.50;;
18168;SDS011;49877;50.398;30.324;2022-07-22T07:26:50;4.13;;;2.80;;
18168;SDS011;49877;50.398;30.324;2022-07-22T07:29:18;4.47;;;2.70;;
18168;SDS011;49877;50.398;30.324;2022-07-22T07:31:45;4.20;;;3.00;;
18168;SDS011;49877;50.398;30.324;2022-07-22T07:34:12;4.73;;;2.57;;
18168;SDS011;49877;50.398;30.324;2022-07-22T07:36:39;3.40;;;3.10;;
18168;SDS011;49877;50.398;30.324;2022-07-22T07:39:06;3.63;;;2.60;;
18168;SDS011;49877;50.398;30.324;2022-07-22T07:41:33;3.47;;;2.70;;
18168;SDS011;49877;50.398;30.324;2022-07-22T07:44:00;5.83;;;3.10;;
18168;SDS011;49877;50.398;30.324;2022-07-22T07:46:28;3.03;;;2.33;;
18168;SDS011;49877;50.398;30.324;2022-07-22T07:48:55;4.40;;;2.70;;
18168;SDS011;49877;50.398;30.324;2022-07-22T07:51:22;2.70;;;2.43;;
18168;SDS011;49877;50.398;30.324;2022-07-22T07:53:49;3.53;;;2.27;;
18168;SDS011;49877;50.398;30.324;2022-07-22T07:56:16;3.73;;;2.27;;
18168;SDS011;49877;50.398;30.324;2022-07-22T07:58:43;3.40;;;2.30;;
18168;SDS011;49877;50.398;30.324;2022-07-22T08:01:10;2.93;;;2.30;;
18168;SDS011;49877;50.398;30.324;2022-07-22T08:03:38;3.80;;;2.20;;
18168;SDS011;49877;50.398;30.324;2022-07-22T08:06:05;3.73;;;2.20;;
18168;SDS011;49877;50.398;30.324;2022-07-22T08:08:32;3.50;;;2.13;;
18168;SDS011;49877;50.398;30.324;2022-07-22T08:10:59;4.33;;;2.30;;
18168;SDS011;49877;50.398;30.324;2022-07-22T08:13:26;4.00;;;2.30;;
18168;SDS011;49877;50.398;30.324;2022-07-22T08:15:53;2.60;;;2.40;;
18168;SDS011;49877;50.398;30.324;2022-07-22T08:18:20;4.30;;;2.50;;
18168;SDS011;49877;50.398;30.324;2022-07-22T08:20:49;4.27;;;2.40;;
18168;SDS011;49877;50.398;30.324;2022-07-22T08:23:15;20.33;;;2.50;;
18168;SDS011;49877;50.398;30.324;2022-07-22T08:25:42;3.73;;;2.40;;
18168;SDS011;49877;50.398;30.324;2022-07-22T08:28:09;3.20;;;2.27;;
18168;SDS011;49877;50.398;30.324;2022-07-22T08:30:36;3.00;;;2.47;;
18168;SDS011;49877;50.398;30.324;2022-07-22T08:33:04;3.83;;;2.47;;
18168;SDS011;49877;50.398;30.324;2022-07-22T08:35:31;4.87;;;2.57;;
18168;SDS011;49877;50.398;30.324;2022-07-22T08:37:59;15.40;;;2.67;;
18168;SDS011;49877;50.398;30.324;2022-07-22T08:40:26;4.57;;;2.70;;
18168;SDS011;49877;50.398;30.324;2022-07-22T08:42:54;3.87;;;2.60;;
18168;SDS011;49877;50.398;30.324;2022-07-22T08:45:20;2.50;;;2.30;;
18168;SDS011;49877;50.398;30.324;2022-07-22T08:47:48;3.93;;;2.33;;
18168;SDS011;49877;50.398;30.324;2022-07-22T08:50:17;6.30;;;2.30;;
18168;SDS011;49877;50.398;30.324;2022-07-22T08:52:44;2.77;;;2.40;;
18168;SDS011;49877;50.398;30.324;2022-07-22T08:55:16;2.97;;;2.33;;
18168;SDS011;49877;50.398;30.324;2022-07-22T08:57:43;3.00;;;2.20;;
18168;SDS011;49877;50.398;30.324;2022-07-22T09:00:12;2.63;;;2.30;;
18168;SDS011;49877;50.398;30.324;2022-07-22T09:02:41;5.27;;;2.30;;
18168;SDS011;49877;50.398;30.324;2022-07-22T09:05:09;3.67;;;2.27;;
18168;SDS011;49877;50.398;30.324;2022-07-22T09:07:40;3.50;;;2.23;;
18168;SDS011;49877;50.398;30.324;2022-07-22T09:10:09;3.17;;;2.33;;
18168;SDS011;49877;50.398;30.324;2022-07-22T09:12:51;2.20;;;2.00;;
18168;SDS011;49877;50.398;30.324;2022-07-22T09:15:24;4.07;;;2.33;;
18168;SDS011;49877;50.398;30.324;2022-07-22T09:17:53;4.03;;;2.30;;
18168;SDS011;49877;50.398;30.324;2022-07-22T09:20:20;5.00;;;2.80;;
18168;SDS011;49877;50.398;30.324;2022-07-22T09:22:47;2.87;;;2.20;;
18168;SDS011;49877;50.398;30.324;2022-07-22T09:25:22;2.30;;;2.03;;
18168;SDS011;49877;50.398;30.324;2022-07-22T09:27:54;3.80;;;2.03;;
18168;SDS011;49877;50.398;30.324;2022-07-22T09:30:23;3.97;;;2.00;;
18168;SDS011;49877;50.398;30.324;2022-07-22T09:32:51;2.83;;;2.10;;
18168;SDS011;49877;50.398;30.324;2022-07-22T09:35:21;3.73;;;1.70;;
18168;SDS011;49877;50.398;30.324;2022-07-22T09:37:50;4.33;;;1.93;;
18168;SDS011;49877;50.398;30.324;2022-07-22T09:40:19;5.30;;;1.80;;
18168;SDS011;49877;50.398;30.324;2022-07-22T09:42:49;2.27;;;1.63;;
18168;SDS011;49877;50.398;30.324;2022-07-22T09:45:19;11.17;;;2.17;;
18168;SDS011;49877;50.398;30.324;2022-07-22T09:47:48;7.90;;;1.90;;
18168;SDS011;49877;50.398;30.324;2022-07-22T09:50:16;3.23;;;1.90;;
18168;SDS011;49877;50.398;30.324;2022-07-22T09:52:47;2.73;;;1.80;;
18168;SDS011;49877;50.398;30.324;2022-07-22T09:55:16;4.03;;;1.83;;
18168;SDS011;49877;50.398;30.324;2022-07-22T09:57:44;2.30;;;1.80;;
18168;SDS011;49877;50.398;30.324;2022-07-22T10:00:12;3.50;;;1.83;;
18168;SDS011;49877;50.398;30.324;2022-07-22T10:02:44;2.77;;;1.80;;
18168;SDS011;49877;50.398;30.324;2022-07-22T10:05:13;3.13;;;1.90;;
18168;SDS011;49877;50.398;30.324;2022-07-22T10:07:41;2.07;;;1.70;;
18168;SDS011;49877;50.398;30.324;2022-07-22T10:10:09;4.33;;;1.77;;
18168;SDS011;49877;50.398;30.324;2022-07-22T10:12:38;3.77;;;2.10;;
18168;SDS011;49877;50.398;30.324;2022-07-22T10:15:06;4.07;;;2.07;;
18168;SDS011;49877;50.398;30.324;2022-07-22T10:17:33;3.07;;;2.40;;
18168;SDS011;49877;50.398;30.324;2022-07-22T10:20:03;4.27;;;2.17;;
18168;SDS011;49877;50.398;30.324;2022-07-22T10:22:51;1.70;;;1.60;;
18168;SDS011;49877;50.398;30.324;2022-07-22T10:25:20;3.87;;;1.70;;
18168;SDS011;49877;50.398;30.324;2022-07-22T10:27:50;4.37;;;1.90;;
18168;SDS011;49877;50.398;30.324;2022-07-22T10:30:18;2.83;;;1.70;;
18168;SDS011;49877;50.398;30.324;2022-07-22T10:33:00;2.77;;;2.40;;
18168;SDS011;49877;50.398;30.324;2022-07-22T10:35:31;2.85;;;1.75;;
18168;SDS011;49877;50.398;30.324;2022-07-22T10:38:00;1.70;;;1.60;;
18168;SDS011;49877;50.398;30.324;2022-07-22T10:40:30;2.83;;;1.50;;
18168;SDS011;49877;50.398;30.324;2022-07-22T10:43:09;5.22;;;1.73;;
18168;SDS011;49877;50.398;30.324;2022-07-22T10:45:47;9.00;;;1.87;;
18168;SDS011;49877;50.398;30.324;2022-07-22T10:48:17;1.53;;;1.43;;
18168;SDS011;49877;50.398;30.324;2022-07-22T10:51:06;1.95;;;1.48;;
18168;SDS011;49877;50.398;30.324;2022-07-22T10:53:42;2.53;;;2.00;;
18168;SDS011;49877;50.398;30.324;2022-07-22T10:56:15;4.50;;;1.87;;
18168;SDS011;49877;50.398;30.324;2022-07-22T10:58:51;2.13;;;1.47;;
18168;SDS011;49877;50.398;30.324;2022-07-22T11:01:20;7.00;;;2.00;;
18168;SDS011;49877;50.398;30.324;2022-07-22T11:03:49;4.00;;;1.60;;
18168;SDS011;49877;50.398;30.324;2022-07-22T11:06:19;3.40;;;1.97;;
18168;SDS011;49877;50.398;30.324;2022-07-22T11:08:49;2.67;;;1.50;;
18168;SDS011;49877;50.398;30.324;2022-07-22T11:11:18;3.20;;;1.80;;
18168;SDS011;49877;50.398;30.324;2022-07-22T11:13:57;2.47;;;1.80;;
18168;SDS011;49877;50.398;30.324;2022-07-22T11:16:25;2.47;;;1.90;;
18168;SDS011;49877;50.398;30.324;2022-07-22T11:18:54;1.63;;;1.50;;
18168;SDS011;49877;50.398;30.324;2022-07-22T11:21:27;7.83;;;1.80;;
18168;SDS011;49877;50.398;30.324;2022-07-22T11:23:55;3.28;;;1.80;;
18168;SDS011;49877;50.398;30.324;2022-07-22T11:26:24;7.45;;;2.08;;
18168;SDS011;49877;50.398;30.324;2022-07-22T11:28:52;1.90;;;1.35;;
18168;SDS011;49877;50.398;30.324;2022-07-22T11:31:19;3.42;;;1.70;;
18168;SDS011;49877;50.398;30.324;2022-07-22T11:33:46;1.80;;;1.50;;
18168;SDS011;49877;50.398;30.324;2022-07-22T11:36:13;3.75;;;1.80;;
18168;SDS011;49877;50.398;30.324;2022-07-22T11:38:42;1.83;;;1.60;;
18168;SDS011;49877;50.398;30.324;2022-07-22T11:41:11;4.10;;;1.50;;
18168;SDS011;49877;50.398;30.324;2022-07-22T11:43:42;5.63;;;1.60;;
18168;SDS011;49877;50.398;30.324;2022-07-22T11:46:10;4.63;;;1.67;;
18168;SDS011;49877;50.398;30.324;2022-07-22T11:48:37;3.50;;;1.80;;
18168;SDS011;49877;50.398;30.324;2022-07-22T11:51:05;2.23;;;1.93;;
18168;SDS011;49877;50.398;30.324;2022-07-22T11:53:32;2.78;;;1.67;;
18168;SDS011;49877;50.398;30.324;2022-07-22T11:56:02;2.05;;;1.80;;
18168;SDS011;49877;50.398;30.324;2022-07-22T11:58:33;4.93;;;1.80;;
18168;SDS011;49877;50.398;30.324;2022-07-22T12:01:05;3.55;;;1.60;;
18168;SDS011;49877;50.398;30.324;2022-07-22T12:03:33;4.05;;;1.35;;
18168;SDS011;49877;50.398;30.324;2022-07-22T12:06:01;3.08;;;2.00;;
18168;SDS011;49877;50.398;30.324;2022-07-22T12:08:29;4.57;;;1.80;;
18168;SDS011;49877;50.398;30.324;2022-07-22T12:10:57;2.08;;;1.77;;
18168;SDS011;49877;50.398;30.324;2022-07-22T12:13:30;4.95;;;1.60;;
18168;SDS011;49877;50.398;30.324;2022-07-22T12:15:58;1.77;;;1.50;;
18168;SDS011;49877;50.398;30.324;2022-07-22T12:18:26;2.25;;;1.70;;
18168;SDS011;49877;50.398;30.324;2022-07-22T12:20:54;2.58;;;1.50;;
18168;SDS011;49877;50.398;30.324;2022-07-22T12:23:22;1.60;;;1.48;;
18168;SDS011;49877;50.398;30.324;2022-07-22T12:25:55;1.92;;;1.60;;
18168;SDS011;49877;50.398;30.324;2022-07-22T12:28:23;3.38;;;1.63;;
18168;SDS011;49877;50.398;30.324;2022-07-22T12:30:53;2.33;;;1.90;;
18168;SDS011;49877;50.398;30.324;2022-07-22T12:33:22;2.88;;;1.63;;
18168;SDS011;49877;50.398;30.324;2022-07-22T12:35:59;2.83;;;1.70;;
18168;SDS011;49877;50.398;30.324;2022-07-22T12:38:28;4.88;;;1.70;;
18168;SDS011;49877;50.398;30.324;2022-07-22T12:40:55;2.22;;;1.63;;
18168;SDS011;49877;50.398;30.324;2022-07-22T12:43:25;3.08;;;1.70;;
18168;SDS011;49877;50.398;30.324;2022-07-22T12:45:54;3.63;;;1.50;;
18168;SDS011;49877;50.398;30.324;2022-07-22T12:48:29;2.45;;;1.45;;
18168;SDS011;49877;50.398;30.324;2022-07-22T12:50:56;6.38;;;2.92;;
18168;SDS011;49877;50.398;30.324;2022-07-22T12:53:24;5.88;;;2.17;;
18168;SDS011;49877;50.398;30.324;2022-07-22T12:55:55;1.92;;;1.45;;
18168;SDS011;49877;50.398;30.324;2022-07-22T12:58:24;5.68;;;1.90;;
18168;SDS011;49877;50.398;30.324;2022-07-22T13:00:54;10.32;;;1.90;;
18168;SDS011;49877;50.398;30.324;2022-07-22T13:03:22;2.30;;;1.60;;
18168;SDS011;49877;50.398;30.324;2022-07-22T13:05:52;4.25;;;2.05;;
18168;SDS011;49877;50.398;30.324;2022-07-22T13:08:20;2.92;;;1.52;;
18168;SDS011;49877;50.398;30.324;2022-07-22T13:10:48;2.05;;;1.52;;
18168;SDS011;49877;50.398;30.324;2022-07-22T13:13:15;4.05;;;1.85;;
18168;SDS011;49877;50.398;30.324;2022-07-22T13:15:41;4.22;;;1.55;;
18168;SDS011;49877;50.398;30.324;2022-07-22T13:18:10;2.22;;;1.50;;
18168;SDS011;49877;50.398;30.324;2022-07-22T13:20:37;3.13;;;1.73;;
18168;SDS011;49877;50.398;30.324;2022-07-22T13:23:04;4.00;;;2.85;;
18168;SDS011;49877;50.398;30.324;2022-07-22T13:25:31;2.22;;;1.50;;
18168;SDS011;49877;50.398;30.324;2022-07-22T13:27:58;3.58;;;1.73;;
18168;SDS011;49877;50.398;30.324;2022-07-22T13:30:25;2.47;;;1.50;;
18168;SDS011;49877;50.398;30.324;2022-07-22T13:32:53;1.92;;;1.50;;
18168;SDS011;49877;50.398;30.324;2022-07-22T13:35:21;1.52;;;1.40;;
18168;SDS011;49877;50.398;30.324;2022-07-22T13:37:48;4.97;;;2.85;;
18168;SDS011;49877;50.398;30.324;2022-07-22T13:40:15;4.63;;;1.52;;
18168;SDS011;49877;50.398;30.324;2022-07-22T13:42:42;4.55;;;1.90;;
18168;SDS011;49877;50.398;30.324;2022-07-22T13:45:10;4.13;;;1.60;;
18168;SDS011;49877;50.398;30.324;2022-07-22T13:47:39;4.50;;;1.45;;
18168;SDS011;49877;50.398;30.324;2022-07-22T13:50:06;2.42;;;1.52;;
18168;SDS011;49877;50.398;30.324;2022-07-22T13:52:35;1.73;;;1.63;;
18168;SDS011;49877;50.398;30.324;2022-07-22T13:55:02;2.20;;;1.55;;
18168;SDS011;49877;50.398;30.324;2022-07-22T13:57:30;1.50;;;1.40;;
18168;SDS011;49877;50.398;30.324;2022-07-22T13:59:57;1.58;;;1.40;;
18168;SDS011;49877;50.398;30.324;2022-07-22T14:02:24;2.45;;;1.80;;
18168;SDS011;49877;50.398;30.324;2022-07-22T14:04:51;1.92;;;1.45;;
18168;SDS011;49877;50.398;30.324;2022-07-22T14:07:18;2.22;;;1.65;;
18168;SDS011;49877;50.398;30.324;2022-07-22T14:09:46;3.13;;;1.70;;
18168;SDS011;49877;50.398;30.324;2022-07-22T14:12:13;6.35;;;1.52;;
18168;SDS011;49877;50.398;30.324;2022-07-22T14:14:41;3.08;;;1.60;;
18168;SDS011;49877;50.398;30.324;2022-07-22T14:17:08;5.90;;;2.55;;
18168;SDS011;49877;50.398;30.324;2022-07-22T14:19:35;2.22;;;1.70;;
18168;SDS011;49877;50.398;30.324;2022-07-22T14:22:02;1.90;;;1.55;;
18168;SDS011;49877;50.398;30.324;2022-07-22T14:24:29;2.20;;;1.60;;
18168;SDS011;49877;50.398;30.324;2022-07-22T14:26:57;5.38;;;2.10;;
18168;SDS011;49877;50.398;30.324;2022-07-22T14:29:24;2.80;;;1.55;;
18168;SDS011;49877;50.398;30.324;2022-07-22T14:31:51;1.52;;;1.42;;
18168;SDS011;49877;50.398;30.324;2022-07-22T14:34:18;11.10;;;2.00;;
18168;SDS011;49877;50.398;30.324;2022-07-22T14:36:45;2.03;;;1.60;;
18168;SDS011;49877;50.398;30.324;2022-07-22T14:39:12;1.58;;;1.48;;
18168;SDS011;49877;50.398;30.324;2022-07-22T14:41:39;2.83;;;1.63;;
18168;SDS011;49877;50.398;30.324;2022-07-22T14:44:08;1.50;;;1.40;;
18168;SDS011;49877;50.398;30.324;2022-07-22T14:46:34;2.05;;;1.50;;
18168;SDS011;49877;50.398;30.324;2022-07-22T14:49:01;1.83;;;1.58;;
18168;SDS011;49877;50.398;30.324;2022-07-22T14:51:28;3.42;;;1.65;;
18168;SDS011;49877;50.398;30.324;2022-07-22T14:53:55;6.13;;;1.60;;
18168;SDS011;49877;50.398;30.324;2022-07-22T14:56:22;4.00;;;1.52;;
18168;SDS011;49877;50.398;30.324;2022-07-22T14:58:49;1.60;;;1.50;;
18168;SDS011;49877;50.398;30.324;2022-07-22T15:01:17;4.47;;;1.52;;
18168;SDS011;49877;50.398;30.324;2022-07-22T15:03:44;3.55;;;1.48;;
18168;SDS011;49877;50.398;30.324;2022-07-22T15:06:11;1.88;;;1.60;;
18168;SDS011;49877;50.398;30.324;2022-07-22T15:08:38;3.58;;;1.60;;
18168;SDS011;49877;50.398;30.324;2022-07-22T15:11:05;5.13;;;1.75;;
18168;SDS011;49877;50.398;30.324;2022-07-22T15:13:32;6.03;;;1.70;;
18168;SDS011;49877;50.398;30.324;2022-07-22T15:15:59;3.22;;;1.60;;
18168;SDS011;49877;50.398;30.324;2022-07-22T15:18:27;2.30;;;1.50;;
18168;SDS011;49877;50.398;30.324;2022-07-22T15:20:54;2.85;;;1.67;;
18168;SDS011;49877;50.398;30.324;2022-07-22T15:23:22;3.30;;;1.50;;
18168;SDS011;49877;50.398;30.324;2022-07-22T15:25:50;2.60;;;1.67;;
18168;SDS011;49877;50.398;30.324;2022-07-22T15:28:18;3.80;;;1.73;;
18168;SDS011;49877;50.398;30.324;2022-07-22T15:30:45;2.60;;;1.58;;
18168;SDS011;49877;50.398;30.324;2022-07-22T15:33:12;3.63;;;1.60;;
18168;SDS011;49877;50.398;30.324;2022-07-22T15:35:41;4.47;;;1.70;;
18168;SDS011;49877;50.398;30.324;2022-07-22T15:38:08;1.67;;;1.50;;
18168;SDS011;49877;50.398;30.324;2022-07-22T15:40:35;6.32;;;1.95;;
18168;SDS011;49877;50.398;30.324;2022-07-22T15:43:03;4.53;;;1.60;;
18168;SDS011;49877;50.398;30.324;2022-07-22T15:45:30;1.83;;;1.50;;
18168;SDS011;49877;50.398;30.324;2022-07-22T15:47:57;3.75;;;2.40;;
18168;SDS011;49877;50.398;30.324;2022-07-22T15:50:24;3.22;;;2.30;;
18168;SDS011;49877;50.398;30.324;2022-07-22T15:52:52;5.70;;;1.98;;
18168;SDS011;49877;50.398;30.324;2022-07-22T15:55:19;3.13;;;1.42;;
18168;SDS011;49877;50.398;30.324;2022-07-22T15:57:47;1.77;;;1.57;;
18168;SDS011;49877;50.398;30.324;2022-07-22T16:00:32;2.72;;;1.77;;
18168;SDS011;49877;50.398;30.324;2022-07-22T16:02:58;2.47;;;1.33;;
18168;SDS011;49877;50.398;30.324;2022-07-22T16:05:26;2.08;;;1.70;;
18168;SDS011;49877;50.398;30.324;2022-07-22T16:07:55;2.60;;;1.70;;
18168;SDS011;49877;50.398;30.324;2022-07-22T16:10:22;2.28;;;1.48;;
18168;SDS011;49877;50.398;30.324;2022-07-22T16:12:49;3.33;;;1.77;;
18168;SDS011;49877;50.398;30.324;2022-07-22T16:15:16;5.70;;;3.00;;
18168;SDS011;49877;50.398;30.324;2022-07-22T16:17:43;5.95;;;2.95;;
18168;SDS011;49877;50.398;30.324;2022-07-22T16:20:10;3.13;;;1.80;;
18168;SDS011;49877;50.398;30.324;2022-07-22T16:22:37;4.22;;;1.55;;
18168;SDS011;49877;50.398;30.324;2022-07-22T16:25:06;3.47;;;1.60;;
18168;SDS011;49877;50.398;30.324;2022-07-22T16:27:33;2.13;;;1.60;;
18168;SDS011;49877;50.398;30.324;2022-07-22T16:30:00;2.93;;;1.87;;
18168;SDS011;49877;50.398;30.324;2022-07-22T16:32:27;3.73;;;1.50;;
18168;SDS011;49877;50.398;30.324;2022-07-22T16:34:54;4.50;;;1.80;;
18168;SDS011;49877;50.398;30.324;2022-07-22T16:37:21;2.83;;;1.50;;
18168;SDS011;49877;50.398;30.324;2022-07-22T16:39:48;2.00;;;1.80;;
18168;SDS011;49877;50.398;30.324;2022-07-22T16:42:17;7.25;;;2.13;;
18168;SDS011;49877;50.398;30.324;2022-07-22T16:44:44;4.07;;;2.00;;
18168;SDS011;49877;50.398;30.324;2022-07-22T16:47:11;3.37;;;1.60;;
18168;SDS011;49877;50.398;30.324;2022-07-22T16:49:38;4.30;;;1.63;;
18168;SDS011;49877;50.398;30.324;2022-07-22T16:52:05;5.10;;;1.80;;
18168;SDS011;49877;50.398;30.324;2022-07-22T16:54:32;3.08;;;1.80;;
18168;SDS011;49877;50.398;30.324;2022-07-22T16:56:59;2.50;;;1.58;;
18168;SDS011;49877;50.398;30.324;2022-07-22T16:59:27;3.42;;;1.80;;
18168;SDS011;49877;50.398;30.324;2022-07-22T17:01:54;1.90;;;1.50;;
18168;SDS011;49877;50.398;30.324;2022-07-22T17:04:21;2.33;;;1.60;;
18168;SDS011;49877;50.398;30.324;2022-07-22T17:06:48;4.33;;;3.40;;
18168;SDS011;49877;50.398;30.324;2022-07-22T17:09:15;4.67;;;2.63;;
18168;SDS011;49877;50.398;30.324;2022-07-22T17:11:42;2.93;;;1.93;;
18168;SDS011;49877;50.398;30.324;2022-07-22T17:14:10;7.30;;;5.37;;
18168;SDS011;49877;50.398;30.324;2022-07-22T17:16:38;12.65;;;6.60;;
18168;SDS011;49877;50.398;30.324;2022-07-22T17:19:05;13.13;;;8.20;;
18168;SDS011;49877;50.398;30.324;2022-07-22T17:21:32;2.07;;;1.83;;
18168;SDS011;49877;50.398;30.324;2022-07-22T17:23:59;4.00;;;1.90;;
18168;SDS011;49877;50.398;30.324;2022-07-22T17:26:26;3.20;;;2.03;;
18168;SDS011;49877;50.398;30.324;2022-07-22T17:28:53;2.50;;;1.80;;
18168;SDS011;49877;50.398;30.324;2022-07-22T17:31:21;3.53;;;1.83;;